sensor_id;sensor_type;location;lat;lon;timestamp;pressure;altitude;pressure_sealevel;temperature;humidity
63700;BME280;49845;47.130;142.766;2023-07-13T00:01:46;99519.97;;;12.57;100.00
63700;BME280;49845;47.130;142.766;2023-07-13T00:04:19;99515.53;;;12.59;100.00
63700;BME280;49845;47.130;142.766;2023-07-13T00:06:49;99517.47;;;12.54;100.00
63700;BME280;49845;47.130;142.766;2023-07-13T00:09:20;99488.41;;;12.36;100.00
63700;BME280;49845;47.130;142.766;2023-07-13T00:11:53;99528.53;;;12.62;100.00
63700;BME280;49845;47.130;142.766;2023-07-13T00:14:27;99481.44;;;12.35;100.00
63700;BME280;49845;47.130;142.766;2023-07-13T00:16:58;99522.47;;;12.60;100.00
63700;BME280;49845;47.130;142.766;2023-07-13T00:19:28;99538.31;;;12.57;100.00
63700;BME280;49845;47.130;142.766;2023-07-13T00:21:59;99502.31;;;12.38;100.00
63700;BME280;49845;47.130;142.766;2023-07-13T00:24:29;99522.47;;;12.60;100.00
63700;BME280;49845;47.130;142.766;2023-07-13T00:27:00;99515.19;;;12.68;100.00
63700;BME280;49845;47.130;142.766;2023-07-13T00:29:32;99518.50;;;12.73;100.00
63700;BME280;49845;47.130;142.766;2023-07-13T00:32:03;99516.66;;;12.75;100.00
63700;BME280;49845;47.130;142.766;2023-07-13T00:34:34;99522.16;;;12.69;100.00
63700;BME280;49845;47.130;142.766;2023-07-13T00:37:06;99455.59;;;12.26;100.00
63700;BME280;49845;47.130;142.766;2023-07-13T00:39:37;99522.28;;;12.66;100.00
63700;BME280;49845;47.130;142.766;2023-07-13T00:42:07;99515.09;;;12.71;100.00
63700;BME280;49845;47.130;142.766;2023-07-13T00:44:39;99532.41;;;12.75;100.00
63700;BME280;49845;47.130;142.766;2023-07-13T00:47:10;99531.53;;;12.74;100.00
63700;BME280;49845;47.130;142.766;2023-07-13T00:49:40;99528.88;;;12.76;100.00
63700;BME280;49845;47.130;142.766;2023-07-13T00:52:11;99530.81;;;12.71;100.00
63700;BME280;49845;47.130;142.766;2023-07-13T00:54:44;99529.03;;;12.71;100.00
63700;BME280;49845;47.130;142.766;2023-07-13T00:57:17;99536.22;;;12.66;100.00
63700;BME280;49845;47.130;142.766;2023-07-13T00:59:55;99522.59;;;12.57;100.00
63700;BME280;49845;47.130;142.766;2023-07-13T01:02:27;99533.19;;;12.54;100.00
63700;BME280;49845;47.130;142.766;2023-07-13T01:04:58;99529.00;;;12.48;100.00
63700;BME280;49845;47.130;142.766;2023-07-13T01:07:30;99533.50;;;12.44;100.00
63700;BME280;49845;47.130;142.766;2023-07-13T01:10:00;99543.25;;;12.41;100.00
63700;BME280;49845;47.130;142.766;2023-07-13T01:12:44;99537.16;;;12.40;100.00
63700;BME280;49845;47.130;142.766;2023-07-13T01:15:39;99530.31;;;12.36;100.00
63700;BME280;49845;47.130;142.766;2023-07-13T01:18:11;99537.56;;;12.28;100.00
63700;BME280;49845;47.130;142.766;2023-07-13T01:20:48;99537.50;;;12.31;100.00
63700;BME280;49845;47.130;142.766;2023-07-13T01:23:19;99543.56;;;12.32;100.00
63700;BME280;49845;47.130;142.766;2023-07-13T01:25:50;99543.47;;;12.35;100.00
63700;BME280;49845;47.130;142.766;2023-07-13T01:28:21;99546.03;;;12.36;100.00
63700;BME280;49845;47.130;142.766;2023-07-13T01:30:56;99506.59;;;12.16;100.00
63700;BME280;49845;47.130;142.766;2023-07-13T01:33:27;99537.06;;;12.43;100.00
63700;BME280;49845;47.130;142.766;2023-07-13T01:35:59;99542.19;;;12.46;100.00
63700;BME280;49845;47.130;142.766;2023-07-13T01:38:31;99547.19;;;12.52;100.00
63700;BME280;49845;47.130;142.766;2023-07-13T01:41:02;99546.22;;;12.55;100.00
63700;BME280;49845;47.130;142.766;2023-07-13T01:43:34;99537.34;;;12.59;100.00
63700;BME280;49845;47.130;142.766;2023-07-13T01:46:04;99540.97;;;12.55;100.00
63700;BME280;49845;47.130;142.766;2023-07-13T01:48:50;99538.31;;;12.57;100.00
63700;BME280;49845;47.130;142.766;2023-07-13T01:51:23;99540.13;;;12.55;100.00
63700;BME280;49845;47.130;142.766;2023-07-13T01:53:54;99539.28;;;12.54;100.00
63700;BME280;49845;47.130;142.766;2023-07-13T01:56:24;99551.38;;;12.58;100.00
63700;BME280;49845;47.130;142.766;2023-07-13T01:58:55;99545.25;;;12.58;100.00
63700;BME280;49845;47.130;142.766;2023-07-13T02:01:25;99554.16;;;12.54;100.00
63700;BME280;49845;47.130;142.766;2023-07-13T02:03:56;99551.69;;;12.49;100.00
63700;BME280;49845;47.130;142.766;2023-07-13T02:06:28;99551.69;;;12.49;100.00
63700;BME280;49845;47.130;142.766;2023-07-13T02:08:59;99559.84;;;12.41;100.00
63700;BME280;49845;47.130;142.766;2023-07-13T02:11:29;99557.78;;;12.49;100.00
63700;BME280;49845;47.130;142.766;2023-07-13T02:14:02;99558.72;;;12.48;100.00
63700;BME280;49845;47.130;142.766;2023-07-13T02:16:31;99523.47;;;12.32;100.00
63700;BME280;49845;47.130;142.766;2023-07-13T02:19:02;99555.53;;;12.64;100.00
63700;BME280;49845;47.130;142.766;2023-07-13T02:21:34;99550.06;;;12.70;100.00
63700;BME280;49845;47.130;142.766;2023-07-13T02:24:05;99556.78;;;12.77;100.00
63700;BME280;49845;47.130;142.766;2023-07-13T02:26:36;99552.06;;;12.87;100.00
63700;BME280;49845;47.130;142.766;2023-07-13T02:29:06;99556.34;;;12.89;100.00
63700;BME280;49845;47.130;142.766;2023-07-13T02:31:36;99563.31;;;12.90;100.00
63700;BME280;49845;47.130;142.766;2023-07-13T02:34:07;99563.06;;;12.97;100.00
63700;BME280;49845;47.130;142.766;2023-07-13T02:36:39;99560.50;;;12.95;100.00
63700;BME280;49845;47.130;142.766;2023-07-13T02:39:11;99545.00;;;12.89;100.00
63700;BME280;49845;47.130;142.766;2023-07-13T02:41:42;99563.31;;;12.90;100.00
63700;BME280;49845;47.130;142.766;2023-07-13T02:44:13;99561.47;;;12.92;100.00
63700;BME280;49845;47.130;142.766;2023-07-13T02:46:43;99561.13;;;13.02;100.00
63700;BME280;49845;47.130;142.766;2023-07-13T02:49:14;99567.22;;;13.02;100.00
63700;BME280;49845;47.130;142.766;2023-07-13T02:51:47;99564.56;;;13.04;100.00
63700;BME280;49845;47.130;142.766;2023-07-13T02:54:17;99559.44;;;13.01;100.00
63700;BME280;49845;47.130;142.766;2023-07-13T02:56:47;99572.31;;;13.07;100.00
63700;BME280;49845;47.130;142.766;2023-07-13T02:59:18;99569.25;;;12.95;100.00
63700;BME280;49845;47.130;142.766;2023-07-13T03:01:48;99575.06;;;13.04;100.00
63700;BME280;49845;47.130;142.766;2023-07-13T03:04:20;99569.81;;;13.04;100.00
63700;BME280;49845;47.130;142.766;2023-07-13T03:06:52;99570.81;;;13.00;100.00
63700;BME280;49845;47.130;142.766;2023-07-13T03:09:26;99577.00;;;12.99;100.00
63700;BME280;49845;47.130;142.766;2023-07-13T03:11:57;99574.41;;;12.97;100.00
63700;BME280;49845;47.130;142.766;2023-07-13T03:14:27;99563.75;;;13.02;100.00
63700;BME280;49845;47.130;142.766;2023-07-13T03:16:58;99575.78;;;13.07;100.00
63700;BME280;49845;47.130;142.766;2023-07-13T03:19:31;99571.28;;;13.11;100.00
63700;BME280;49845;47.130;142.766;2023-07-13T03:22:06;99567.72;;;13.12;100.00
63700;BME280;49845;47.130;142.766;2023-07-13T03:24:39;99578.22;;;13.12;100.00
63700;BME280;49845;47.130;142.766;2023-07-13T03:27:13;99575.06;;;13.04;100.00
63700;BME280;49845;47.130;142.766;2023-07-13T03:29:45;99567.84;;;13.09;100.00
63700;BME280;49845;47.130;142.766;2023-07-13T03:32:17;99554.19;;;13.01;100.00
63700;BME280;49845;47.130;142.766;2023-07-13T03:34:51;99570.00;;;12.98;100.00
63700;BME280;49845;47.130;142.766;2023-07-13T03:37:24;99551.34;;;12.83;100.00
63700;BME280;49845;47.130;142.766;2023-07-13T03:39:56;99573.81;;;12.90;100.00
63700;BME280;49845;47.130;142.766;2023-07-13T03:42:27;99567.84;;;12.85;100.00
63700;BME280;49845;47.130;142.766;2023-07-13T03:44:58;99567.63;;;12.91;100.00
63700;BME280;49845;47.130;142.766;2023-07-13T03:47:30;99565.94;;;12.90;100.00
63700;BME280;49845;47.130;142.766;2023-07-13T03:50:01;99576.34;;;12.92;100.00
63700;BME280;49845;47.130;142.766;2023-07-13T03:52:35;99573.56;;;12.97;100.00
63700;BME280;49845;47.130;142.766;2023-07-13T03:55:07;99573.56;;;12.97;100.00
63700;BME280;49845;47.130;142.766;2023-07-13T03:57:40;99574.50;;;12.95;100.00
63700;BME280;49845;47.130;142.766;2023-07-13T04:00:13;99593.44;;;13.02;100.00
63700;BME280;49845;47.130;142.766;2023-07-13T04:02:48;99587.22;;;13.05;100.00
63700;BME280;49845;47.130;142.766;2023-07-13T04:05:20;99581.13;;;13.04;100.00
63700;BME280;49845;47.130;142.766;2023-07-13T04:07:53;99591.00;;;12.98;100.00
63700;BME280;49845;47.130;142.766;2023-07-13T04:10:25;99598.28;;;12.89;100.00
63700;BME280;49845;47.130;142.766;2023-07-13T04:12:58;99595.09;;;12.81;100.00
63700;BME280;49845;47.130;142.766;2023-07-13T04:15:31;99587.56;;;12.72;100.00
63700;BME280;49845;47.130;142.766;2023-07-13T04:18:03;99536.78;;;12.51;100.00
63700;BME280;49845;47.130;142.766;2023-07-13T04:20:35;99572.94;;;12.90;100.00
63700;BME280;49845;47.130;142.766;2023-07-13T04:23:09;99576.13;;;12.98;100.00
63700;BME280;49845;47.130;142.766;2023-07-13T04:25:44;99579.50;;;13.02;100.00
63700;BME280;49845;47.130;142.766;2023-07-13T04:28:18;99596.25;;;13.21;100.00
63700;BME280;49845;47.130;142.766;2023-07-13T04:30:50;99596.94;;;13.26;100.00
63700;BME280;49845;47.130;142.766;2023-07-13T04:33:23;99522.09;;;12.94;100.00
63700;BME280;49845;47.130;142.766;2023-07-13T04:35:56;99589.97;;;13.49;100.00
63700;BME280;49845;47.130;142.766;2023-07-13T04:38:31;99547.78;;;13.31;100.00
63700;BME280;49845;47.130;142.766;2023-07-13T04:41:06;99602.22;;;13.70;100.00
63700;BME280;49845;47.130;142.766;2023-07-13T04:43:38;99607.63;;;13.67;100.00
63700;BME280;49845;47.130;142.766;2023-07-13T04:46:12;99604.56;;;13.56;100.00
63700;BME280;49845;47.130;142.766;2023-07-13T04:48:46;99614.69;;;13.65;100.00
63700;BME280;49845;47.130;142.766;2023-07-13T04:51:18;99618.69;;;13.75;100.00
63700;BME280;49845;47.130;142.766;2023-07-13T04:53:52;99624.72;;;13.77;100.00
63700;BME280;49845;47.130;142.766;2023-07-13T04:56:28;99630.09;;;13.74;100.00
63700;BME280;49845;47.130;142.766;2023-07-13T04:59:00;99613.00;;;13.64;100.00
63700;BME280;49845;47.130;142.766;2023-07-13T05:01:31;99631.84;;;13.52;100.00
63700;BME280;49845;47.130;142.766;2023-07-13T05:04:03;99631.16;;;13.47;100.00
63700;BME280;49845;47.130;142.766;2023-07-13T05:06:36;99629.56;;;13.43;100.00
63700;BME280;49845;47.130;142.766;2023-07-13T05:09:10;99619.19;;;13.40;100.00
63700;BME280;49845;47.130;142.766;2023-07-13T05:11:44;99631.50;;;13.37;100.00
63700;BME280;49845;47.130;142.766;2023-07-13T05:14:15;99624.69;;;13.33;100.00
63700;BME280;49845;47.130;142.766;2023-07-13T05:16:47;99630.03;;;13.30;100.00
63700;BME280;49845;47.130;142.766;2023-07-13T05:19:19;99629.94;;;13.33;100.00
63700;BME280;49845;47.130;142.766;2023-07-13T05:21:54;99624.69;;;13.33;100.00
63700;BME280;49845;47.130;142.766;2023-07-13T05:24:29;99634.50;;;13.28;100.00
63700;BME280;49845;47.130;142.766;2023-07-13T05:27:04;99625.09;;;13.21;100.00
63700;BME280;49845;47.130;142.766;2023-07-13T05:29:36;99629.16;;;13.30;100.00
63700;BME280;49845;47.130;142.766;2023-07-13T05:32:08;99632.56;;;13.33;100.00
63700;BME280;49845;47.130;142.766;2023-07-13T05:34:40;99637.00;;;13.31;100.00
63700;BME280;49845;47.130;142.766;2023-07-13T05:37:12;99635.41;;;13.27;100.00
63700;BME280;49845;47.130;142.766;2023-07-13T05:39:46;99630.34;;;13.21;100.00
63700;BME280;49845;47.130;142.766;2023-07-13T05:42:19;99637.53;;;13.16;100.00
63700;BME280;49845;47.130;142.766;2023-07-13T05:44:52;99648.16;;;13.13;100.00
63700;BME280;49845;47.130;142.766;2023-07-13T05:47:27;99650.88;;;13.10;100.00
63700;BME280;49845;47.130;142.766;2023-07-13T05:49:59;99653.72;;;13.04;100.00
63700;BME280;49845;47.130;142.766;2023-07-13T05:52:33;99652.13;;;13.00;100.00
63700;BME280;49845;47.130;142.766;2023-07-13T05:55:07;99649.72;;;12.93;100.00
63700;BME280;49845;47.130;142.766;2023-07-13T05:57:40;99651.53;;;12.91;100.00
63700;BME280;49845;47.130;142.766;2023-07-13T06:00:14;99665.50;;;12.92;100.00
63700;BME280;49845;47.130;142.766;2023-07-13T06:02:46;99663.03;;;12.87;100.00
63700;BME280;49845;47.130;142.766;2023-07-13T06:05:18;99661.50;;;12.82;100.00
63700;BME280;49845;47.130;142.766;2023-07-13T06:07:52;99620.56;;;12.52;100.00
63700;BME280;49845;47.130;142.766;2023-07-13T06:10:26;99675.03;;;12.94;100.00
63700;BME280;49845;47.130;142.766;2023-07-13T06:12:58;99671.41;;;12.99;100.00
63700;BME280;49845;47.130;142.766;2023-07-13T06:15:30;99684.63;;;12.95;100.00
63700;BME280;49845;47.130;142.766;2023-07-13T06:18:02;99678.13;;;13.06;100.00
63700;BME280;49845;47.130;142.766;2023-07-13T06:20:35;99668.41;;;13.08;100.00
63700;BME280;49845;47.130;142.766;2023-07-13T06:23:07;99677.78;;;13.15;100.00
63700;BME280;49845;47.130;142.766;2023-07-13T06:25:41;99675.97;;;13.17;100.00
63700;BME280;49845;47.130;142.766;2023-07-13T06:28:14;99683.16;;;13.12;100.00
63700;BME280;49845;47.130;142.766;2023-07-13T06:30:46;99686.91;;;13.05;100.00
63700;BME280;49845;47.130;142.766;2023-07-13T06:33:18;99679.19;;;13.00;100.00
63700;BME280;49845;47.130;142.766;2023-07-13T06:35:53;99687.97;;;12.99;100.00
63700;BME280;49845;47.130;142.766;2023-07-13T06:38:26;99685.41;;;12.98;100.00
63700;BME280;49845;47.130;142.766;2023-07-13T06:40:59;99688.22;;;12.93;100.00
63700;BME280;49845;47.130;142.766;2023-07-13T06:43:32;99697.13;;;12.87;100.00
63700;BME280;49845;47.130;142.766;2023-07-13T06:46:05;99696.53;;;12.79;100.00
63700;BME280;49845;47.130;142.766;2023-07-13T06:48:36;99694.28;;;12.68;100.00
63700;BME280;49845;47.130;142.766;2023-07-13T06:51:08;99677.69;;;12.68;100.00
63700;BME280;49845;47.130;142.766;2023-07-13T06:53:40;99691.84;;;12.64;100.00
63700;BME280;49845;47.130;142.766;2023-07-13T06:56:14;99691.03;;;12.62;100.00
63700;BME280;49845;47.130;142.766;2023-07-13T06:58:46;99693.88;;;12.56;100.00
63700;BME280;49845;47.130;142.766;2023-07-13T07:01:35;99686.06;;;12.52;100.00
63700;BME280;49845;47.130;142.766;2023-07-13T07:04:10;99698.22;;;12.55;100.00
63700;BME280;49845;47.130;142.766;2023-07-13T07:06:42;99692.09;;;12.56;100.00
63700;BME280;49845;47.130;142.766;2023-07-13T07:09:15;99689.59;;;12.53;100.00
63700;BME280;49845;47.130;142.766;2023-07-13T07:11:49;99692.34;;;12.48;100.00
63700;BME280;49845;47.130;142.766;2023-07-13T07:14:31;99699.50;;;12.43;100.00
63700;BME280;49845;47.130;142.766;2023-07-13T07:17:04;99674.09;;;12.19;100.00
63700;BME280;49845;47.130;142.766;2023-07-13T07:19:38;99699.59;;;12.40;100.00
63700;BME280;49845;47.130;142.766;2023-07-13T07:22:12;99699.69;;;12.37;100.00
63700;BME280;49845;47.130;142.766;2023-07-13T07:24:45;99715.41;;;12.37;100.00
63700;BME280;49845;47.130;142.766;2023-07-13T07:27:19;99701.50;;;12.35;100.00
63700;BME280;49845;47.130;142.766;2023-07-13T07:29:56;99699.91;;;12.31;100.00
63700;BME280;49845;47.130;142.766;2023-07-13T07:32:31;99720.88;;;12.31;100.00
63700;BME280;49845;47.130;142.766;2023-07-13T07:35:07;99703.06;;;12.14;100.00
63700;BME280;49845;47.130;142.766;2023-07-13T07:37:38;99724.69;;;12.21;100.00
63700;BME280;49845;47.130;142.766;2023-07-13T07:40:13;99702.38;;;12.07;100.00
63700;BME280;49845;47.130;142.766;2023-07-13T07:42:50;99722.53;;;12.05;100.00
63700;BME280;49845;47.130;142.766;2023-07-13T07:45:21;99727.25;;;11.94;100.00
63700;BME280;49845;47.130;142.766;2023-07-13T07:47:53;99732.47;;;11.94;100.00
63700;BME280;49845;47.130;142.766;2023-07-13T07:50:28;99724.78;;;11.88;100.00
63700;BME280;49845;47.130;142.766;2023-07-13T07:53:01;99738.66;;;11.92;100.00
63700;BME280;49845;47.130;142.766;2023-07-13T07:55:37;99750.00;;;11.92;100.00
63700;BME280;49845;47.130;142.766;2023-07-13T07:58:33;99746.56;;;11.90;100.00
63700;BME280;49845;47.130;142.766;2023-07-13T08:01:07;99753.53;;;11.91;100.00
63700;BME280;49845;47.130;142.766;2023-07-13T08:03:42;99746.66;;;11.87;100.00
63700;BME280;49845;47.130;142.766;2023-07-13T08:06:21;99752.81;;;11.84;100.00
63700;BME280;49845;47.130;142.766;2023-07-13T08:08:57;99757.97;;;11.87;100.00
63700;BME280;49845;47.130;142.766;2023-07-13T08:11:29;99750.16;;;11.86;100.00
63700;BME280;49845;47.130;142.766;2023-07-13T08:14:09;99757.13;;;11.87;100.00
63700;BME280;49845;47.130;142.766;2023-07-13T08:16:42;99748.44;;;11.85;100.00
63700;BME280;49845;47.130;142.766;2023-07-13T08:19:15;99753.66;;;11.85;100.00
63700;BME280;49845;47.130;142.766;2023-07-13T08:21:48;99703.09;;;11.55;100.00
63700;BME280;49845;47.130;142.766;2023-07-13T08:24:25;99759.00;;;11.82;100.00
63700;BME280;49845;47.130;142.766;2023-07-13T08:27:00;99691.44;;;11.35;100.00
63700;BME280;49845;47.130;142.766;2023-07-13T08:29:37;99762.53;;;11.81;100.00
63700;BME280;49845;47.130;142.766;2023-07-13T08:32:11;99765.81;;;11.89;100.00
63700;BME280;49845;47.130;142.766;2023-07-13T08:34:43;99770.22;;;11.87;100.00
63700;BME280;49845;47.130;142.766;2023-07-13T08:37:16;99771.91;;;11.88;100.00
63700;BME280;49845;47.130;142.766;2023-07-13T08:39:48;99768.31;;;11.92;100.00
63700;BME280;49845;47.130;142.766;2023-07-13T08:42:33;99761.50;;;11.86;100.00
63700;BME280;49845;47.130;142.766;2023-07-13T08:45:17;99769.25;;;11.91;100.00
63700;BME280;49845;47.130;142.766;2023-07-13T08:47:55;99771.03;;;11.89;100.00
63700;BME280;49845;47.130;142.766;2023-07-13T08:50:32;99759.19;;;11.76;100.00
63700;BME280;49845;47.130;142.766;2023-07-13T08:53:33;99786.00;;;11.84;100.00
63700;BME280;49845;47.130;142.766;2023-07-13T08:56:14;99786.13;;;11.79;100.00
63700;BME280;49845;47.130;142.766;2023-07-13T08:58:51;99777.41;;;11.79;100.00
63700;BME280;49845;47.130;142.766;2023-07-13T09:01:58;99781.84;;;11.77;100.00
63700;BME280;49845;47.130;142.766;2023-07-13T09:05:38;99781.84;;;11.77;100.00
63700;BME280;49845;47.130;142.766;2023-07-13T09:09:01;99789.78;;;11.74;100.00
63700;BME280;49845;47.130;142.766;2023-07-13T09:12:22;99784.78;;;11.64;100.00
63700;BME280;49845;47.130;142.766;2023-07-13T09:15:53;99794.53;;;11.59;100.00
63700;BME280;49845;47.130;142.766;2023-07-13T09:23:14;99803.44;;;11.52;100.00
63700;BME280;49845;47.130;142.766;2023-07-13T09:26:56;99806.97;;;11.51;100.00
63700;BME280;49845;47.130;142.766;2023-07-13T09:30:35;99767.72;;;11.20;100.00
63700;BME280;49845;47.130;142.766;2023-07-13T09:34:02;99803.78;;;11.40;100.00
63700;BME280;49845;47.130;142.766;2023-07-13T09:37:47;99808.16;;;11.39;100.00
63700;BME280;49845;47.130;142.766;2023-07-13T09:41:03;99812.53;;;11.39;100.00
63700;BME280;49845;47.130;142.766;2023-07-13T09:44:26;99816.13;;;11.35;100.00
63700;BME280;49845;47.130;142.766;2023-07-13T09:47:50;99811.97;;;11.28;100.00
63700;BME280;49845;47.130;142.766;2023-07-13T09:51:15;99819.78;;;11.29;100.00
63700;BME280;49845;47.130;142.766;2023-07-13T09:54:32;99814.56;;;11.28;100.00
63700;BME280;49845;47.130;142.766;2023-07-13T09:57:37;99832.13;;;11.24;100.00
63700;BME280;49845;47.130;142.766;2023-07-13T10:00:55;99833.00;;;11.23;100.00
63700;BME280;49845;47.130;142.766;2023-07-13T10:04:31;99830.59;;;11.15;100.00
63700;BME280;49845;47.130;142.766;2023-07-13T10:07:48;99837.53;;;11.16;100.00
63700;BME280;49845;47.130;142.766;2023-07-13T10:14:40;99846.34;;;11.12;100.00
63700;BME280;49845;47.130;142.766;2023-07-13T10:18:09;99830.03;;;11.02;100.00
63700;BME280;49845;47.130;142.766;2023-07-13T10:21:32;99844.97;;;10.99;100.00
63700;BME280;49845;47.130;142.766;2023-07-13T10:24:52;99855.31;;;11.04;100.00
63700;BME280;49845;47.130;142.766;2023-07-13T10:28:26;99829.84;;;10.76;100.00
63700;BME280;49845;47.130;142.766;2023-07-13T10:32:10;99866.69;;;11.01;100.00
63700;BME280;49845;47.130;142.766;2023-07-13T10:36:00;99871.09;;;10.99;100.00
63700;BME280;49845;47.130;142.766;2023-07-13T10:39:28;99855.72;;;10.87;100.00
63700;BME280;49845;47.130;142.766;2023-07-13T10:42:08;99883.34;;;10.97;100.00
63700;BME280;49845;47.130;142.766;2023-07-13T10:44:48;99880.72;;;10.97;100.00
63700;BME280;49845;47.130;142.766;2023-07-13T10:47:23;99891.19;;;10.97;100.00
63700;BME280;49845;47.130;142.766;2023-07-13T10:50:21;99900.81;;;10.95;100.00
63700;BME280;49845;47.130;142.766;2023-07-13T10:53:47;99905.22;;;10.93;100.00
63700;BME280;49845;47.130;142.766;2023-07-13T10:57:17;99894.00;;;10.88;100.00
63700;BME280;49845;47.130;142.766;2023-07-13T11:00:49;99911.34;;;10.92;100.00
63700;BME280;49845;47.130;142.766;2023-07-13T11:04:00;99900.28;;;10.80;100.00
63700;BME280;49845;47.130;142.766;2023-07-13T11:07:33;99920.03;;;10.94;100.00
63700;BME280;49845;47.130;142.766;2023-07-13T11:18:20;99921.94;;;10.86;100.00
63700;BME280;49845;47.130;142.766;2023-07-13T11:21:31;99933.28;;;10.85;100.00
63700;BME280;49845;47.130;142.766;2023-07-13T11:24:49;99930.69;;;10.85;100.00
63700;BME280;49845;47.130;142.766;2023-07-13T11:31:45;99933.38;;;10.80;100.00
63700;BME280;49845;47.130;142.766;2023-07-13T11:35:19;99929.94;;;10.79;100.00
63700;BME280;49845;47.130;142.766;2023-07-13T11:44:33;99920.38;;;10.78;100.00
63700;BME280;49845;47.130;142.766;2023-07-13T11:47:11;99917.06;;;10.70;100.00
63700;BME280;49845;47.130;142.766;2023-07-13T11:49:48;99850.03;;;10.30;100.00
63700;BME280;49845;47.130;142.766;2023-07-13T11:52:27;99925.59;;;10.78;100.00
63700;BME280;49845;47.130;142.766;2023-07-13T11:55:08;99920.38;;;10.78;100.00
63700;BME280;49845;47.130;142.766;2023-07-13T11:57:49;99908.09;;;10.80;100.00
63700;BME280;49845;47.130;142.766;2023-07-13T12:00:23;99932.47;;;10.83;100.00
63700;BME280;49845;47.130;142.766;2023-07-13T12:02:59;99930.69;;;10.83;100.00
63700;BME280;49845;47.130;142.766;2023-07-13T12:05:34;99923.75;;;10.82;100.00
63700;BME280;49845;47.130;142.766;2023-07-13T12:08:11;99917.00;;;10.73;100.00
63700;BME280;49845;47.130;142.766;2023-07-13T12:10:58;99934.94;;;10.89;100.00
63700;BME280;49845;47.130;142.766;2023-07-13T12:13:36;99935.81;;;10.89;100.00
63700;BME280;49845;47.130;142.766;2023-07-13T12:16:13;99929.84;;;10.83;100.00
63700;BME280;49845;47.130;142.766;2023-07-13T12:18:47;99922.16;;;10.76;100.00
63700;BME280;49845;47.130;142.766;2023-07-13T12:21:22;99928.09;;;10.83;100.00
63700;BME280;49845;47.130;142.766;2023-07-13T12:23:56;99931.53;;;10.85;100.00
63700;BME280;49845;47.130;142.766;2023-07-13T12:26:29;99935.06;;;10.83;100.00
63700;BME280;49845;47.130;142.766;2023-07-13T12:29:06;99926.56;;;10.74;100.00
63700;BME280;49845;47.130;142.766;2023-07-13T12:31:43;99926.56;;;10.74;100.00
63700;BME280;49845;47.130;142.766;2023-07-13T12:34:16;99936.06;;;10.78;100.00
63700;BME280;49845;47.130;142.766;2023-07-13T12:36:50;99931.69;;;10.79;100.00
63700;BME280;49845;47.130;142.766;2023-07-13T12:39:28;99935.31;;;10.72;100.00
63700;BME280;49845;47.130;142.766;2023-07-13T12:42:19;99934.41;;;10.74;100.00
63700;BME280;49845;47.130;142.766;2023-07-13T12:44:58;99927.59;;;10.67;100.00
63700;BME280;49845;47.130;142.766;2023-07-13T12:47:41;99950.06;;;10.76;100.00
63700;BME280;49845;47.130;142.766;2023-07-13T12:50:16;99939.63;;;10.74;100.00
63700;BME280;49845;47.130;142.766;2023-07-13T12:52:52;99899.28;;;10.47;100.00
63700;BME280;49845;47.130;142.766;2023-07-13T12:55:26;99939.69;;;10.71;100.00
63700;BME280;49845;47.130;142.766;2023-07-13T12:58:03;99937.84;;;10.76;100.00
63700;BME280;49845;47.130;142.766;2023-07-13T13:00:49;99941.31;;;10.75;100.00
63700;BME280;49845;47.130;142.766;2023-07-13T13:03:25;99944.84;;;10.74;100.00
63700;BME280;49845;47.130;142.766;2023-07-13T13:06:02;99941.31;;;10.75;100.00
63700;BME280;49845;47.130;142.766;2023-07-13T13:08:37;99935.31;;;10.73;100.00
63700;BME280;49845;47.130;142.766;2023-07-13T13:11:11;99931.03;;;10.69;100.00
63700;BME280;49845;47.130;142.766;2023-07-13T13:13:48;99941.47;;;10.69;100.00
63700;BME280;49845;47.130;142.766;2023-07-13T13:16:33;99919.13;;;10.56;100.00
63700;BME280;49845;47.130;142.766;2023-07-13T13:19:14;99936.44;;;10.60;100.00
63700;BME280;49845;47.130;142.766;2023-07-13T13:21:46;99942.47;;;10.64;100.00
63700;BME280;49845;47.130;142.766;2023-07-13T13:24:20;99950.34;;;10.62;100.00
63700;BME280;49845;47.130;142.766;2023-07-13T13:26:53;99817.91;;;9.83;100.00
63700;BME280;49845;47.130;142.766;2023-07-13T13:29:34;99945.25;;;10.56;100.00
63700;BME280;49845;47.130;142.766;2023-07-13T13:32:11;99899.69;;;10.27;100.00
63700;BME280;49845;47.130;142.766;2023-07-13T13:34:43;99938.31;;;10.55;100.00
63700;BME280;49845;47.130;142.766;2023-07-13T13:37:20;99924.56;;;10.47;100.00
63700;BME280;49845;47.130;142.766;2023-07-13T13:39:52;99943.53;;;10.55;100.00
63700;BME280;49845;47.130;142.766;2023-07-13T13:42:36;99928.91;;;10.46;100.00
63700;BME280;49845;47.130;142.766;2023-07-13T13:45:09;99904.59;;;10.43;100.00
63700;BME280;49845;47.130;142.766;2023-07-13T13:47:43;99897.03;;;10.30;100.00
63700;BME280;49845;47.130;142.766;2023-07-13T13:50:19;99937.53;;;10.51;100.00
63700;BME280;49845;47.130;142.766;2023-07-13T13:52:52;99930.63;;;10.47;100.00
63700;BME280;49845;47.130;142.766;2023-07-13T13:55:24;99941.00;;;10.50;100.00
63700;BME280;49845;47.130;142.766;2023-07-13T13:57:57;99897.13;;;10.24;100.00
63700;BME280;49845;47.130;142.766;2023-07-13T14:00:30;99915.94;;;10.42;100.00
63700;BME280;49845;47.130;142.766;2023-07-13T14:03:04;99935.00;;;10.47;100.00